createdAt,value
2019-03-16T00:01:33.074Z,5.30
2019-03-16T00:04:03.374Z,5.50
2019-03-16T00:06:33.592Z,4.70
2019-03-16T00:09:04.369Z,4.63
2019-03-16T00:11:34.879Z,4.90
2019-03-16T00:14:05.378Z,5.50
2019-03-16T00:16:35.940Z,6.33
2019-03-16T00:19:06.565Z,6.50
2019-03-16T00:21:36.794Z,7.47
2019-03-16T00:24:07.070Z,7.70
2019-03-16T00:26:37.314Z,8.23
2019-03-16T00:29:07.578Z,7.47
2019-03-16T00:31:37.818Z,7.57
2019-03-16T00:34:08.019Z,6.90
2019-03-16T00:36:38.234Z,6.93
2019-03-16T00:39:09.398Z,6.77
2019-03-16T00:41:39.655Z,7.00
2019-03-16T00:44:10.177Z,7.27
2019-03-16T00:46:40.788Z,8.83
2019-03-16T00:49:11.064Z,7.93
2019-03-16T00:51:41.287Z,7.67
2019-03-16T00:54:11.743Z,7.10
2019-03-16T00:56:41.921Z,5.50
2019-03-16T00:59:13.086Z,4.93
2019-03-16T01:01:43.344Z,5.20
2019-03-16T01:04:13.917Z,4.37
2019-03-16T01:06:44.107Z,4.70
2019-03-16T01:09:15.028Z,5.67
2019-03-16T01:11:45.267Z,6.40
2019-03-16T01:14:16.014Z,6.60
2019-03-16T01:16:46.276Z,6.90
2019-03-16T01:19:16.495Z,10.17
2019-03-16T01:21:46.714Z,10.40
2019-03-16T01:24:16.958Z,11.80
2019-03-16T01:26:47.193Z,10.87
2019-03-16T01:29:17.433Z,11.77
2019-03-16T01:31:47.650Z,11.00
2019-03-16T01:34:17.920Z,9.97
2019-03-16T01:36:48.171Z,8.63
2019-03-16T01:39:18.763Z,8.63
2019-03-16T01:41:49.390Z,8.37
2019-03-16T01:44:19.618Z,8.07
2019-03-16T01:46:49.876Z,7.07
2019-03-16T01:49:20.121Z,6.90
2019-03-16T01:51:50.350Z,7.33
2019-03-16T01:54:20.910Z,7.60
2019-03-16T01:56:51.160Z,8.40
2019-03-16T01:59:22.068Z,10.00
2019-03-16T02:01:52.316Z,11.53
2019-03-16T02:04:22.580Z,12.60
2019-03-16T02:06:52.882Z,11.47
2019-03-16T02:09:23.100Z,11.37
2019-03-16T02:11:53.312Z,10.43
2019-03-16T02:14:23.524Z,9.23
2019-03-16T02:16:53.780Z,8.20
2019-03-16T02:19:23.932Z,6.20
2019-03-16T02:21:54.203Z,5.63
2019-03-16T02:24:24.536Z,5.33
2019-03-16T02:26:54.790Z,5.20
2019-03-16T02:29:25.017Z,6.37
2019-03-16T02:31:55.234Z,5.47
2019-03-16T02:34:25.770Z,5.60
2019-03-16T02:36:56.334Z,5.07
2019-03-16T02:39:26.963Z,5.97
2019-03-16T02:41:57.499Z,5.90
2019-03-16T02:44:27.758Z,5.67
2019-03-16T02:46:58.020Z,5.30
2019-03-16T02:49:28.300Z,5.97
2019-03-16T02:51:58.578Z,5.00
2019-03-16T02:54:28.800Z,5.83
2019-03-16T02:56:58.961Z,4.87
2019-03-16T02:59:29.636Z,4.53
2019-03-16T03:01:59.906Z,4.70
2019-03-16T03:04:30.095Z,4.57
2019-03-16T03:07:00.341Z,4.50
2019-03-16T03:09:30.674Z,4.37
2019-03-16T03:12:00.906Z,3.90
2019-03-16T03:14:31.105Z,3.63
2019-03-16T03:17:01.384Z,4.00
2019-03-16T03:19:31.982Z,4.20
2019-03-16T03:22:02.504Z,3.87
2019-03-16T03:24:33.449Z,3.97
2019-03-16T03:27:03.718Z,3.73
2019-03-16T03:29:33.999Z,3.83
2019-03-16T03:32:04.160Z,3.97
2019-03-16T03:34:34.454Z,4.53
2019-03-16T03:37:04.666Z,4.90
2019-03-16T03:39:34.881Z,5.10
2019-03-16T03:42:05.094Z,4.87
2019-03-16T03:44:35.367Z,4.47
2019-03-16T03:47:05.898Z,4.83
2019-03-16T03:49:36.447Z,3.93
2019-03-16T03:52:06.947Z,4.30
2019-03-16T03:54:37.182Z,4.53
2019-03-16T03:57:07.370Z,3.90
2019-03-16T03:59:37.642Z,4.17
2019-03-16T04:02:07.895Z,3.77
2019-03-16T04:04:38.518Z,4.00
2019-03-16T04:07:08.847Z,3.80
2019-03-16T04:09:39.492Z,3.97
2019-03-16T04:12:09.711Z,3.80
2019-03-16T04:14:40.250Z,4.00
2019-03-16T04:17:10.499Z,4.37
2019-03-16T04:19:40.720Z,4.60
2019-03-16T04:22:10.953Z,4.13
2019-03-16T04:24:45.088Z,4.50
2019-03-16T04:27:16.392Z,5.03
2019-03-16T04:29:45.583Z,4.50
2019-03-16T04:32:16.166Z,4.30
2019-03-16T04:34:46.750Z,4.90
2019-03-16T04:37:17.338Z,4.60
2019-03-16T04:39:47.856Z,4.63
2019-03-16T04:42:18.090Z,4.03
2019-03-16T04:44:48.224Z,4.50
2019-03-16T04:47:19.410Z,4.17
2019-03-16T04:49:49.663Z,3.90
2019-03-16T04:52:19.888Z,4.47
2019-03-16T04:54:50.086Z,3.67
2019-03-16T04:57:20.232Z,4.50
2019-03-16T04:59:50.706Z,4.80
2019-03-16T05:02:21.260Z,4.80
2019-03-16T05:04:51.458Z,4.33
2019-03-16T05:07:21.695Z,4.07
2019-03-16T05:09:52.240Z,3.73
2019-03-16T05:12:22.473Z,4.10
2019-03-16T05:14:53.009Z,4.27
2019-03-16T05:17:23.261Z,4.10
2019-03-16T05:19:53.422Z,3.97
2019-03-16T05:22:24.036Z,3.20
2019-03-16T05:24:54.771Z,3.97
2019-03-16T05:27:25.303Z,3.97
2019-03-16T05:29:55.543Z,3.90
2019-03-16T05:32:25.761Z,3.93
2019-03-16T05:34:56.965Z,3.87
2019-03-16T05:37:27.262Z,3.73
2019-03-16T05:39:57.772Z,3.77
2019-03-16T05:42:28.025Z,4.25
2019-03-16T05:44:58.559Z,3.80
2019-03-16T05:47:29.171Z,3.93
2019-03-16T05:49:59.722Z,3.17
2019-03-16T05:52:30.033Z,3.93
2019-03-16T05:55:00.707Z,3.40
2019-03-16T05:57:31.289Z,3.93
2019-03-16T06:00:01.881Z,3.60
2019-03-16T06:02:32.120Z,3.33
2019-03-16T06:05:10.488Z,3.37
2019-03-16T06:07:35.036Z,3.17
2019-03-16T06:10:05.963Z,3.33
2019-03-16T06:12:36.296Z,3.27
2019-03-16T06:15:06.955Z,3.40
2019-03-16T06:17:37.226Z,3.40
2019-03-16T06:20:08.471Z,3.03
2019-03-16T06:22:39.142Z,3.70
2019-03-16T06:25:09.807Z,3.13
2019-03-16T06:27:40.315Z,3.40
2019-03-16T06:30:10.602Z,3.40
2019-03-16T06:32:40.902Z,3.23
2019-03-16T06:35:23.981Z,3.33
2019-03-16T06:37:43.115Z,3.50
2019-03-16T06:40:13.440Z,3.70
2019-03-16T06:42:44.450Z,3.50
2019-03-16T06:45:15.034Z,3.40
2019-03-16T06:47:45.331Z,2.90
2019-03-16T06:50:16.799Z,3.10
2019-03-16T06:52:47.067Z,3.17
2019-03-16T06:55:17.342Z,3.23
2019-03-16T06:57:48.147Z,3.30
2019-03-16T07:00:18.560Z,3.00
2019-03-16T07:02:48.838Z,3.10
2019-03-16T07:05:23.145Z,2.73
2019-03-16T07:07:51.284Z,3.03
2019-03-16T07:10:21.661Z,3.23
2019-03-16T07:12:51.984Z,2.90
2019-03-16T07:15:22.563Z,3.63
2019-03-16T07:17:53.175Z,3.57
2019-03-16T07:20:23.763Z,3.53
2019-03-16T07:22:54.131Z,3.00
2019-03-16T07:25:24.418Z,3.10
2019-03-16T07:27:55.026Z,2.90
2019-03-16T07:30:25.573Z,3.60
2019-03-16T07:32:56.141Z,3.07
2019-03-16T07:35:26.429Z,2.80
2019-03-16T07:37:57.150Z,3.00
2019-03-16T07:40:27.707Z,2.77
2019-03-16T07:42:58.327Z,2.70
2019-03-16T07:45:28.596Z,2.57
2019-03-16T07:47:58.955Z,3.23
2019-03-16T07:50:29.581Z,3.30
2019-03-16T07:52:59.823Z,2.83
2019-03-16T07:55:30.157Z,2.77
2019-03-16T07:58:00.419Z,2.90
2019-03-16T08:00:30.761Z,2.90
2019-03-16T08:03:01.118Z,2.73
2019-03-16T08:05:31.523Z,2.47
2019-03-16T08:08:03.542Z,2.57
2019-03-16T08:10:33.943Z,2.40
2019-03-16T08:13:04.941Z,2.60
2019-03-16T08:15:35.377Z,2.23
2019-03-16T08:18:07.884Z,3.03
2019-03-16T08:20:39.252Z,2.60
2019-03-16T08:23:09.977Z,2.40
2019-03-16T08:25:40.369Z,2.10
2019-03-16T08:28:10.709Z,2.40
2019-03-16T08:30:40.981Z,2.40
2019-03-16T08:33:11.737Z,2.40
2019-03-16T08:35:41.995Z,2.20
2019-03-16T08:38:12.667Z,2.73
2019-03-16T08:40:42.911Z,2.00
2019-03-16T08:43:13.207Z,2.13
2019-03-16T08:45:43.492Z,2.37
2019-03-16T08:48:22.645Z,2.40
2019-03-16T08:50:54.547Z,2.47
2019-03-16T08:53:25.484Z,3.13
2019-03-16T08:55:56.176Z,2.40
2019-03-16T08:58:26.460Z,1.90
2019-03-16T09:00:56.893Z,2.50
2019-03-16T09:03:27.568Z,2.50
2019-03-16T09:05:58.254Z,2.23
2019-03-16T09:08:28.489Z,2.00
2019-03-16T09:10:58.843Z,2.37
2019-03-16T09:13:29.114Z,2.00
2019-03-16T09:15:59.399Z,2.33
2019-03-16T09:18:30.444Z,2.30
2019-03-16T09:21:00.772Z,2.40
2019-03-16T09:23:31.039Z,2.27
2019-03-16T09:26:01.372Z,2.37
2019-03-16T09:28:31.818Z,2.20
2019-03-16T09:31:02.160Z,2.37
2019-03-16T09:33:32.718Z,2.30
2019-03-16T09:36:03.235Z,2.27
2019-03-16T09:38:33.523Z,2.40
2019-03-16T09:41:03.845Z,2.20
2019-03-16T09:43:34.369Z,2.40
2019-03-16T09:46:04.859Z,2.00
2019-03-16T09:48:35.213Z,2.57
2019-03-16T09:51:05.523Z,2.20
2019-03-16T09:53:35.821Z,2.43
2019-03-16T09:56:06.197Z,2.37
2019-03-16T09:58:36.496Z,2.57
2019-03-16T10:01:06.994Z,2.07
2019-03-16T10:03:37.724Z,1.77
2019-03-16T10:06:08.818Z,1.77
2019-03-16T10:08:39.093Z,2.10
2019-03-16T10:11:09.995Z,1.90
2019-03-16T10:13:41.060Z,2.10
2019-03-16T10:16:11.373Z,1.63
2019-03-16T10:18:42.300Z,1.40
2019-03-16T10:21:12.680Z,1.30
2019-03-16T10:23:43.013Z,1.60
2019-03-16T10:26:13.303Z,1.47
2019-03-16T10:28:44.154Z,1.63
2019-03-16T10:31:14.908Z,1.77
2019-03-16T10:33:45.205Z,1.50
2019-03-16T10:36:16.360Z,1.83
2019-03-16T10:38:49.266Z,1.87
2019-03-16T10:41:21.606Z,1.60
2019-03-16T10:43:52.036Z,1.90
2019-03-16T10:46:22.821Z,1.67
2019-03-16T10:48:53.525Z,1.70
2019-03-16T10:51:23.945Z,1.60
2019-03-16T10:53:56.040Z,1.53
2019-03-16T10:56:26.386Z,1.40
2019-03-16T10:58:57.097Z,1.57
2019-03-16T11:01:27.527Z,1.70
2019-03-16T11:03:57.880Z,1.50
2019-03-16T11:06:28.598Z,1.67
2019-03-16T11:08:58.960Z,1.30
2019-03-16T11:11:29.932Z,1.67
2019-03-16T11:14:00.593Z,1.20
2019-03-16T11:16:30.897Z,1.30
2019-03-16T11:19:01.248Z,1.10
2019-03-16T11:21:31.584Z,1.63
2019-03-16T11:24:01.854Z,1.43
2019-03-16T11:26:32.163Z,1.67
2019-03-16T11:29:09.114Z,1.77
2019-03-16T11:31:34.363Z,1.33
2019-03-16T11:34:05.726Z,1.60
2019-03-16T11:36:36.075Z,1.97
2019-03-16T11:39:08.464Z,1.80
2019-03-16T11:41:39.079Z,1.87
2019-03-16T11:44:09.537Z,1.60
2019-03-16T11:46:42.109Z,1.73
2019-03-16T11:49:12.756Z,1.70
2019-03-16T11:51:43.467Z,1.77
2019-03-16T11:54:13.933Z,1.70
2019-03-16T11:56:44.211Z,1.57
2019-03-16T11:59:21.684Z,1.90
2019-03-16T12:01:46.719Z,1.77
2019-03-16T12:04:16.978Z,1.90
2019-03-16T12:06:47.700Z,1.80
2019-03-16T12:09:18.381Z,1.60
2019-03-16T12:11:49.131Z,1.80
2019-03-16T12:14:19.542Z,1.57
2019-03-16T12:16:49.904Z,1.70
2019-03-16T12:19:20.171Z,2.10
2019-03-16T12:21:50.453Z,1.63
2019-03-16T12:24:20.692Z,1.83
2019-03-16T12:26:51.022Z,1.60
2019-03-16T12:29:33.389Z,1.90
2019-03-16T12:31:55.553Z,2.00
2019-03-16T12:34:25.892Z,1.87
2019-03-16T12:36:56.224Z,1.90
2019-03-16T12:39:26.613Z,1.83
2019-03-16T12:41:58.517Z,2.00
2019-03-16T12:44:28.729Z,1.90
2019-03-16T12:46:59.431Z,1.80
2019-03-16T12:49:30.454Z,1.70
2019-03-16T12:52:01.994Z,2.23
2019-03-16T12:54:37.876Z,1.97
2019-03-16T12:57:08.790Z,1.97
2019-03-16T12:59:46.849Z,1.60
2019-03-16T13:02:11.386Z,2.00
2019-03-16T13:04:41.834Z,1.70
2019-03-16T13:07:12.569Z,1.70
2019-03-16T13:09:42.961Z,1.67
2019-03-16T13:12:14.644Z,1.60
2019-03-16T13:14:45.020Z,1.47
2019-03-16T13:17:15.741Z,1.93
2019-03-16T13:19:46.041Z,1.80
2019-03-16T13:22:16.661Z,1.83
2019-03-16T13:24:46.993Z,1.80
2019-03-16T13:27:17.717Z,1.80
2019-03-16T13:29:58.630Z,2.20
2019-03-16T13:32:20.370Z,1.87
2019-03-16T13:34:50.804Z,1.90
2019-03-16T13:37:23.376Z,2.20
2019-03-16T13:39:53.677Z,1.90
2019-03-16T13:42:24.026Z,2.13
2019-03-16T13:44:54.566Z,1.73
2019-03-16T13:47:24.900Z,1.90
2019-03-16T13:49:55.358Z,2.20
2019-03-16T13:52:25.628Z,2.00
2019-03-16T13:54:55.952Z,2.20
2019-03-16T13:57:26.655Z,2.37
2019-03-16T13:59:56.952Z,2.30
2019-03-16T14:02:27.253Z,2.50
2019-03-16T14:04:57.611Z,2.10
2019-03-16T14:07:28.205Z,2.10
2019-03-16T14:09:58.622Z,2.17
2019-03-16T14:12:31.628Z,2.20
2019-03-16T14:15:02.342Z,2.27
2019-03-16T14:17:32.926Z,2.40
2019-03-16T14:20:03.339Z,2.17
2019-03-16T14:22:35.431Z,2.63
2019-03-16T14:25:07.461Z,2.10
2019-03-16T14:27:38.154Z,2.30
2019-03-16T14:30:10.096Z,2.00
2019-03-16T14:32:40.517Z,1.83
2019-03-16T14:35:11.129Z,2.47
2019-03-16T14:37:41.481Z,2.80
2019-03-16T14:40:12.874Z,2.23
2019-03-16T14:42:43.852Z,2.40
2019-03-16T14:45:15.572Z,2.57
2019-03-16T14:47:46.176Z,2.40
2019-03-16T14:50:18.137Z,2.73
2019-03-16T14:52:48.431Z,2.27
2019-03-16T14:55:18.796Z,2.73
2019-03-16T14:57:49.250Z,2.37
2019-03-16T15:00:20.040Z,2.90
2019-03-16T15:02:50.744Z,2.47
2019-03-16T15:05:21.060Z,2.47
2019-03-16T15:07:51.772Z,2.80
2019-03-16T15:10:22.573Z,3.10
2019-03-16T15:12:52.971Z,2.47
2019-03-16T15:15:23.323Z,2.53
2019-03-16T15:17:53.612Z,2.50
2019-03-16T15:20:23.907Z,2.60
2019-03-16T15:22:54.450Z,2.20
2019-03-16T15:25:25.257Z,2.23
2019-03-16T15:27:55.940Z,2.53
2019-03-16T15:30:26.343Z,2.60
2019-03-16T15:32:56.814Z,2.40
2019-03-16T15:35:28.445Z,2.27
2019-03-16T15:37:58.898Z,2.30
2019-03-16T15:40:29.259Z,2.23
2019-03-16T15:42:59.616Z,2.60
2019-03-16T15:45:30.208Z,2.33
2019-03-16T15:48:00.952Z,2.50
2019-03-16T15:50:31.218Z,2.42
2019-03-16T15:53:02.064Z,2.70
2019-03-16T15:55:32.784Z,2.27
2019-03-16T15:58:08.415Z,2.33
2019-03-16T16:00:35.229Z,2.50
2019-03-16T16:03:08.983Z,2.30
2019-03-16T16:05:38.303Z,2.40
2019-03-16T16:08:10.650Z,2.30
2019-03-16T16:10:41.182Z,2.40
2019-03-16T16:13:11.497Z,2.40
2019-03-16T16:15:41.835Z,2.30
2019-03-16T16:18:12.212Z,2.23
2019-03-16T16:20:42.859Z,2.60
2019-03-16T16:23:13.654Z,2.43
2019-03-16T16:25:44.236Z,2.53
2019-03-16T16:28:14.648Z,2.60
2019-03-16T16:30:45.307Z,2.50
2019-03-16T16:33:18.514Z,2.10
2019-03-16T16:35:48.858Z,2.60
2019-03-16T16:38:19.239Z,2.50
2019-03-16T16:40:49.962Z,2.80
2019-03-16T16:43:20.280Z,2.60
2019-03-16T16:45:51.060Z,2.63
2019-03-16T16:48:21.646Z,2.27
2019-03-16T16:50:52.741Z,2.83
2019-03-16T16:53:23.111Z,2.37
2019-03-16T16:55:53.502Z,2.40
2019-03-16T16:58:23.825Z,2.73
2019-03-16T17:00:54.399Z,2.90
2019-03-16T17:03:24.890Z,2.90
2019-03-16T17:05:55.738Z,3.10
2019-03-16T17:08:26.133Z,2.67
2019-03-16T17:10:56.505Z,2.73
2019-03-16T17:13:26.857Z,2.97
2019-03-16T17:15:57.266Z,2.70
2019-03-16T17:18:27.601Z,2.67
2019-03-16T17:20:58.269Z,3.03
2019-03-16T17:23:28.608Z,2.97
2019-03-16T17:26:01.008Z,2.47
2019-03-16T17:28:31.080Z,3.10
2019-03-16T17:31:02.654Z,2.87
2019-03-16T17:33:33.024Z,3.17
2019-03-16T17:36:03.685Z,2.50
2019-03-16T17:38:34.087Z,3.37
2019-03-16T17:41:04.458Z,3.03
2019-03-16T17:43:34.770Z,3.20
2019-03-16T17:46:05.102Z,2.90
2019-03-16T17:48:37.928Z,3.30
2019-03-16T17:51:08.357Z,3.27
2019-03-16T17:53:39.108Z,2.83
2019-03-16T17:56:09.417Z,3.27
2019-03-16T17:58:42.641Z,3.47
2019-03-16T18:01:12.972Z,3.27
2019-03-16T18:03:43.685Z,3.23
2019-03-16T18:06:14.301Z,3.47
2019-03-16T18:08:44.968Z,3.00
2019-03-16T18:11:15.587Z,3.10
2019-03-16T18:13:46.166Z,3.10
2019-03-16T18:16:16.740Z,3.13
2019-03-16T18:18:46.951Z,3.70
2019-03-16T18:21:17.200Z,3.37
2019-03-16T18:23:47.471Z,4.00
2019-03-16T18:26:17.688Z,3.60
2019-03-16T18:28:48.307Z,3.70
2019-03-16T18:31:18.545Z,3.80
2019-03-16T18:33:48.833Z,3.70
2019-03-16T18:36:19.142Z,3.87
2019-03-16T18:38:49.374Z,3.63
2019-03-16T18:41:19.859Z,3.40
2019-03-16T18:43:50.939Z,3.50
2019-03-16T18:46:21.487Z,3.40
2019-03-16T18:48:52.211Z,3.60
2019-03-16T18:51:22.480Z,3.60
2019-03-16T18:53:52.726Z,3.63
2019-03-16T18:56:22.976Z,3.80
2019-03-16T18:58:53.629Z,3.60
2019-03-16T19:01:23.834Z,3.63
2019-03-16T19:03:54.417Z,3.67
2019-03-16T19:06:25.038Z,4.47
2019-03-16T19:08:56.321Z,4.13
2019-03-16T19:11:26.553Z,3.60
2019-03-16T19:13:56.705Z,3.63
2019-03-16T19:16:27.190Z,3.93
2019-03-16T19:18:57.399Z,3.70
2019-03-16T19:21:27.632Z,4.17
2019-03-16T19:23:58.400Z,3.90
2019-03-16T19:26:30.114Z,3.47
2019-03-16T19:29:00.559Z,3.47
2019-03-16T19:31:30.809Z,3.93
2019-03-16T19:34:01.027Z,3.47
2019-03-16T19:36:31.536Z,4.00
2019-03-16T19:39:01.824Z,3.50
2019-03-16T19:41:32.026Z,3.37
2019-03-16T19:44:02.256Z,3.50
2019-03-16T19:46:32.504Z,3.40
2019-03-16T19:49:02.744Z,3.67
2019-03-16T19:51:33.006Z,3.80
2019-03-16T19:54:03.350Z,3.93
2019-03-16T19:56:33.652Z,4.30
2019-03-16T19:59:04.349Z,3.47
2019-03-16T20:01:34.652Z,4.13
2019-03-16T20:04:04.850Z,3.00
2019-03-16T20:06:35.494Z,3.40
2019-03-16T20:09:07.775Z,3.37
2019-03-16T20:11:38.642Z,3.23
2019-03-16T20:14:08.835Z,3.37
2019-03-16T20:16:39.508Z,3.30
2019-03-16T20:19:09.688Z,3.37
2019-03-16T20:21:39.921Z,3.07
2019-03-16T20:24:10.102Z,3.57
2019-03-16T20:26:40.372Z,3.10
2019-03-16T20:29:10.998Z,3.70
2019-03-16T20:31:46.783Z,3.27
2019-03-16T20:34:13.138Z,2.97
2019-03-16T20:36:43.420Z,3.87
2019-03-16T20:39:13.649Z,3.10
2019-03-16T20:41:43.912Z,3.27
2019-03-16T20:44:14.136Z,3.23
2019-03-16T20:46:44.709Z,3.37
2019-03-16T20:49:16.162Z,3.37
2019-03-16T20:51:46.377Z,3.30
2019-03-16T20:54:16.699Z,3.27
2019-03-16T20:56:47.089Z,3.00
2019-03-16T20:59:17.931Z,3.00
2019-03-16T21:01:48.186Z,3.23
2019-03-16T21:04:18.465Z,3.07
2019-03-16T21:06:48.689Z,2.90
2019-03-16T21:09:19.517Z,3.57
2019-03-16T21:11:49.791Z,3.47
2019-03-16T21:14:19.948Z,3.17
2019-03-16T21:16:50.467Z,3.00
2019-03-16T21:19:20.715Z,3.20
2019-03-16T21:21:50.955Z,2.87
2019-03-16T21:24:21.579Z,3.67
2019-03-16T21:26:52.979Z,3.00
2019-03-16T21:29:26.234Z,3.20
2019-03-16T21:31:55.224Z,3.27
2019-03-16T21:34:25.477Z,3.30
2019-03-16T21:36:55.695Z,3.33
2019-03-16T21:39:26.266Z,3.10
2019-03-16T21:41:56.527Z,3.30
2019-03-16T21:44:26.737Z,2.90
2019-03-16T21:46:56.980Z,3.00
2019-03-16T21:49:27.206Z,3.27
2019-03-16T21:51:57.456Z,3.50
2019-03-16T21:54:27.738Z,3.00
2019-03-16T21:56:58.051Z,2.90
2019-03-16T21:59:28.389Z,3.20
2019-03-16T22:01:58.545Z,3.23
2019-03-16T22:04:28.799Z,3.17
2019-03-16T22:06:58.985Z,2.60
2019-03-16T22:09:29.256Z,2.70
2019-03-16T22:11:59.787Z,3.10
2019-03-16T22:14:30.361Z,3.03
2019-03-16T22:17:00.601Z,2.60
2019-03-16T22:19:30.827Z,3.13
2019-03-16T22:22:01.872Z,2.97
2019-03-16T22:24:32.090Z,2.90
2019-03-16T22:27:02.311Z,2.40
2019-03-16T22:29:32.819Z,2.80
2019-03-16T22:32:03.115Z,2.90
2019-03-16T22:34:33.381Z,2.60
2019-03-16T22:37:03.648Z,2.77
2019-03-16T22:39:33.871Z,2.80
2019-03-16T22:42:04.123Z,2.60
2019-03-16T22:44:34.349Z,3.20
2019-03-16T22:47:04.566Z,2.50
2019-03-16T22:49:35.092Z,2.90
2019-03-16T22:52:05.743Z,2.40
2019-03-16T22:54:35.974Z,2.87
2019-03-16T22:57:06.605Z,2.40
2019-03-16T22:59:36.865Z,2.70
2019-03-16T23:02:07.162Z,2.50
2019-03-16T23:04:37.437Z,2.70
2019-03-16T23:07:07.637Z,2.37
2019-03-16T23:09:38.174Z,2.73
2019-03-16T23:12:08.385Z,2.77
2019-03-16T23:14:38.613Z,2.70
2019-03-16T23:17:08.905Z,2.60
2019-03-16T23:19:39.211Z,2.80
2019-03-16T23:22:09.406Z,2.40
2019-03-16T23:24:39.769Z,2.30
2019-03-16T23:27:10.421Z,2.60
2019-03-16T23:29:40.950Z,2.73
2019-03-16T23:32:11.369Z,2.60
2019-03-16T23:34:41.654Z,2.67
2019-03-16T23:37:12.306Z,2.40
2019-03-16T23:39:42.561Z,2.77
2019-03-16T23:42:13.163Z,2.77
2019-03-16T23:44:43.325Z,2.90
2019-03-16T23:47:13.852Z,3.47
2019-03-16T23:49:44.136Z,3.10
2019-03-16T23:52:16.160Z,3.17
2019-03-16T23:54:46.793Z,3.43
2019-03-16T23:57:17.129Z,3.10
2019-03-16T23:59:47.403Z,3.03
